Boeing Field King County International Airport
KBFI : now visible

Aeroporto :











RITROVATECI SU...

 
LOGIN :

Iscrizione | Disclaimer

   EN    FR    IT 

 









Sommario :    VFR   VFR Marginale   IFR   IFR Intensivo   IFR Molto Intensivo
Visibilità : 
Base nubi : 
>= 8 km
>= 3000ft
5 / 8 km
1000 / 3000 ft
1500m / 5 km
500 / 1000 ft
800 / 1500m
200 / 500 ft
< 800m
< 200 ft
Simboli :   Temporali  Nebbia  Neve Forte  Precipitazioni Forti  Vento > 20 kt






- Altitudine del aeroporto : 21 ft
- Codice IATA : BFI


KBFI - Boeing Field King County International

ULTIMO METAR :
  • 040253Z 06006KT 10SM BKN030 BKN038 OVC070 06/01 A3001 RMK AO2 SLP162 60000 T00610006 58002

METARs OBSOLETI :
  • 040153Z 04006KT 10SM SCT038 BKN050 BKN060 07/01 A3002 RMK AO2 SLP165 T00670006
  • 040053Z 02005KT 10SM SCT043 BKN055 07/01 A3002 RMK AO2 RAE09 SLP165 P0000 T00720011

TAF KBFI
Valido dal 04 a 00 ore il 05 a 00 ore UTC


032320Z 0400/0424 25010G20KT P6SM -SHRA SCT030 BKN050
TEMPO 0400/0402 33007KT BKN030
FM040200 33005KT P6SM -SHRA BKN030 OVC050
FM040900 04004KT P6SM VCSH BKN030 BKN150
FM041200 05004KT P6SM SCT030 BKN150
FM041800 34006KT P6SM SCT070 BKN150



MetMap, La meteo Aeronautica in un colpo d'occhio ! - Copyright ORBIFLY Dicembre 2007 - Disclaimer

ORBIFLY MET'MAP TEAM :

Programmazione e sviluppo : Alexandra Zaïnal
Concezione : Baudouin d'Aumeries
Aiuto per la programmazione : Marc-Olivier Méhu
Supporto tecnico e logistico : Manuel Goepfert
Aiuto per la traduzione : Arnaldo La Scala

Contatto : metmap@orbifly.com




FONTI E CREDITI :

   NOAA       Earth
Advisory